Time;durP1;ratioP1;P1;durP2;ratioP2;P2;SDS_P1;SDS_P2;PMS_P1;PMS_P2;Temp;Humidity;BMP_temperature;BMP_pressure;BME280_temperature;BME280_humidity;BME280_pressure;Samples;Min_cycle;Max_cycle;Signal;HPM_P1;HPM_P2
2024/01/09 00:00:47;;;;;;;;;;;-4.30;99.90;;;;;;5081103;28;20306;-69
2024/01/09 00:03:15;;;;;;;;;;;-4.40;99.90;;;;;;5091029;28;19920;-70
2024/01/09 00:05:43;;;;;;;;;;;-4.30;99.90;;;;;;5090381;28;19920;-70
2024/01/09 00:08:12;;;;;;;;;;;-4.30;99.90;;;;;;5090776;28;19924;-69
2024/01/09 00:10:39;;;;;;;;;;;-4.40;99.90;;;;;;5082068;28;19930;-69
2024/01/09 00:13:08;;;;;;;;;;;-4.40;99.90;;;;;;5088441;28;19927;-68
2024/01/09 00:15:36;;;;;;;;;;;-4.40;99.90;;;;;;5090768;28;19920;-69
2024/01/09 00:18:04;;;;;;;;;;;-4.40;99.90;;;;;;5091856;28;19920;-72
2024/01/09 00:20:32;;;;;;;;;;;-4.40;99.90;;;;;;5094164;28;20209;-69
2024/01/09 00:23:00;;;;;;;;;;;-4.40;99.90;;;;;;5094962;28;19924;-69
2024/01/09 00:25:28;;;;;;;;;;;-4.50;99.90;;;;;;5091188;28;19921;-68
2024/01/09 00:27:55;;;;;;;;;;;-4.50;99.90;;;;;;5094941;28;20337;-69
2024/01/09 00:30:24;;;;;;;;;;;-4.50;99.90;;;;;;5077897;28;19920;-68
2024/01/09 00:32:52;;;;;;;;;;;-4.50;99.90;;;;;;5086687;28;19924;-68
2024/01/09 00:35:20;;;;;;;;;;;-4.50;99.90;;;;;;5092868;28;19970;-68
2024/01/09 00:37:48;;;;;;;;;;;-4.40;99.90;;;;;;5094251;28;19939;-68
2024/01/09 00:40:16;;;;;;;;;;;-4.50;99.90;;;;;;5094200;28;20022;-69
2024/01/09 00:42:43;;;;;;;;;;;-4.40;99.90;;;;;;5093592;28;19924;-69
2024/01/09 00:45:11;;;;;;;;;;;-4.50;99.90;;;;;;5094767;28;19920;-68
2024/01/09 00:47:40;;;;;;;;;;;-4.50;99.90;;;;;;5094072;28;19927;-69
2024/01/09 00:50:09;;;;;;;;;;;-4.50;99.90;;;;;;5093739;28;19928;-68
2024/01/09 00:52:36;;;;;;;;;;;-4.50;99.90;;;;;;5094003;28;19920;-69
2024/01/09 00:55:04;;;;;;;;;;;-4.50;99.90;;;;;;5103035;22;20633;-68
2024/01/09 00:57:32;;;;;;;;;;;-4.40;99.90;;;;;;5070420;28;19924;-69
2024/01/09 01:00:00;;;;;;;;;;;-4.40;99.90;;;;;;5073072;28;19920;-67
2024/01/09 01:02:28;;;;;;;;;;;-4.30;99.90;;;;;;5074132;28;20372;-67
2024/01/09 01:04:57;;;;;;;;;;;-4.30;99.90;;;;;;5058847;28;19955;-67
2024/01/09 01:07:24;;;;;;;;;;;-4.40;99.90;;;;;;5053949;28;19927;-67
2024/01/09 01:09:52;;;;;;;;;;;-4.40;99.90;;;;;;5053188;28;20410;-67
2024/01/09 01:12:20;;;;;;;;;;;-4.30;99.90;;;;;;5053822;28;19940;-68
2024/01/09 01:14:47;;;;;;;;;;;-4.10;99.90;;;;;;5053330;28;19928;-68
2024/01/09 01:17:15;;;;;;;;;;;-4.20;99.90;;;;;;5053752;28;19943;-68
2024/01/09 01:19:43;;;;;;;;;;;-4.20;99.90;;;;;;5053296;28;19925;-68
2024/01/09 01:22:12;;;;;;;;;;;-4.20;99.90;;;;;;5053238;28;19921;-68
2024/01/09 01:24:40;;;;;;;;;;;-4.30;99.90;;;;;;5052957;28;19921;-68
2024/01/09 01:27:08;;;;;;;;;;;-4.30;99.90;;;;;;5053523;28;19921;-69
2024/01/09 01:29:35;;;;;;;;;;;-4.40;99.90;;;;;;5061042;28;19920;-68
2024/01/09 01:32:09;;;;;;;;;;;-4.40;99.90;;;;;;5058188;28;19920;-69
2024/01/09 01:34:36;;;;;;;;;;;-4.40;99.90;;;;;;5053267;28;20365;-69
2024/01/09 01:37:04;;;;;;;;;;;-4.40;99.90;;;;;;5053288;28;19924;-69
2024/01/09 01:39:36;;;;;;;;;;;-4.40;99.90;;;;;;5053064;28;19927;-69
2024/01/09 01:42:04;;;;;;;;;;;-4.40;99.90;;;;;;5053155;28;19948;-69
2024/01/09 01:44:32;;;;;;;;;;;-4.40;99.90;;;;;;5053232;28;19921;-69
2024/01/09 01:47:00;;;;;;;;;;;-4.30;99.90;;;;;;5044998;28;19924;-70
2024/01/09 01:49:28;;;;;;;;;;;-4.30;99.90;;;;;;5052933;28;19920;-69
2024/01/09 01:51:56;;;;;;;;;;;-4.40;99.90;;;;;;5052378;28;20406;-69
2024/01/09 01:54:24;;;;;;;;;;;-4.40;99.90;;;;;;5073708;28;20176;-69
2024/01/09 01:56:53;;;;;;;;;;;-4.40;99.90;;;;;;5100043;28;19924;-69
2024/01/09 01:59:22;;;;;;;;;;;-4.40;99.90;;;;;;5093080;28;19955;-69
2024/01/09 02:01:50;;;;;;;;;;;-4.40;99.90;;;;;;5092452;28;19924;-69
2024/01/09 02:04:19;;;;;;;;;;;-4.20;99.90;;;;;;5092622;28;20113;-69
2024/01/09 02:06:47;;;;;;;;;;;-4.30;99.90;;;;;;5092976;28;19920;-69
2024/01/09 02:09:15;;;;;;;;;;;-4.40;99.90;;;;;;5092969;28;19931;-69
2024/01/09 02:11:46;;;;;;;;;;;-4.40;99.90;;;;;;5092499;28;20291;-68
2024/01/09 02:14:16;;;;;;;;;;;-4.10;99.90;;;;;;5093239;28;19970;-69
2024/01/09 02:16:43;;;;;;;;;;;-4.10;99.90;;;;;;5092682;28;19934;-68
2024/01/09 02:19:11;;;;;;;;;;;-4.10;99.90;;;;;;5092398;28;20393;-69
2024/01/09 02:21:39;;;;;;;;;;;-3.80;99.90;;;;;;5091827;28;20298;-68
2024/01/09 02:24:07;;;;;;;;;;;-3.90;99.90;;;;;;5092801;28;19924;-69
2024/01/09 02:26:37;;;;;;;;;;;-4.00;99.90;;;;;;5092867;28;19920;-68
2024/01/09 02:29:27;;;;;;;;;;;-4.10;99.90;;;;;;5087278;28;20007;-68
2024/01/09 02:31:56;;;;;;;;;;;-4.20;99.90;;;;;;5091598;28;19973;-69
2024/01/09 02:34:24;;;;;;;;;;;-4.30;99.90;;;;;;5092030;28;19924;-68
2024/01/09 02:36:52;;;;;;;;;;;-4.30;99.90;;;;;;5092156;28;20007;-68
2024/01/09 02:39:20;;;;;;;;;;;-4.30;99.90;;;;;;5092272;28;19981;-68
2024/01/09 02:41:48;;;;;;;;;;;-4.20;99.90;;;;;;5091053;28;19928;-68
2024/01/09 02:44:16;;;;;;;;;;;-4.30;99.90;;;;;;5092414;28;20012;-67
2024/01/09 02:46:44;;;;;;;;;;;-4.30;99.90;;;;;;5092160;28;19920;-69
2024/01/09 02:49:13;;;;;;;;;;;-4.10;99.90;;;;;;5092057;28;19932;-67
2024/01/09 02:51:42;;;;;;;;;;;-4.20;99.90;;;;;;5091285;28;20019;-67
2024/01/09 02:54:10;;;;;;;;;;;-4.30;99.90;;;;;;5091695;28;20024;-67
2024/01/09 02:56:37;;;;;;;;;;;-4.30;99.90;;;;;;5100015;28;19927;-67
2024/01/09 02:59:05;;;;;;;;;;;-4.20;99.90;;;;;;5091141;28;19966;-67
2024/01/09 03:01:33;;;;;;;;;;;-3.80;99.90;;;;;;5091673;28;20302;-67
2024/01/09 03:04:01;;;;;;;;;;;-3.80;99.90;;;;;;5091818;28;19920;-66
2024/01/09 03:06:30;;;;;;;;;;;-3.90;99.90;;;;;;5091628;28;19955;-66
2024/01/09 03:08:58;;;;;;;;;;;-4.00;99.90;;;;;;5091172;28;20345;-67
2024/01/09 03:11:26;;;;;;;;;;;-4.00;99.90;;;;;;5091367;28;19927;-68
2024/01/09 03:13:54;;;;;;;;;;;-4.00;99.90;;;;;;5089736;28;19931;-68
2024/01/09 03:16:22;;;;;;;;;;;-4.10;99.90;;;;;;5085475;28;19920;-68
2024/01/09 03:18:50;;;;;;;;;;;-4.20;99.90;;;;;;5091346;28;19923;-68
2024/01/09 03:21:18;;;;;;;;;;;-4.20;99.90;;;;;;5090792;28;20002;-68
2024/01/09 03:23:47;;;;;;;;;;;-4.30;99.90;;;;;;5091511;28;19981;-69
2024/01/09 03:26:15;;;;;;;;;;;-4.30;99.90;;;;;;5091786;28;20007;-68
2024/01/09 03:28:43;;;;;;;;;;;-4.40;99.90;;;;;;5091052;28;20279;-67
2024/01/09 03:31:18;;;;;;;;;;;-4.50;99.90;;;;;;5090989;28;19927;-68
2024/01/09 03:33:46;;;;;;;;;;;-4.30;99.90;;;;;;5090755;28;19927;-67
2024/01/09 03:36:14;;;;;;;;;;;-4.30;99.90;;;;;;5091520;28;20446;-67
2024/01/09 03:38:42;;;;;;;;;;;-4.30;99.90;;;;;;5091353;28;19920;-67
2024/01/09 03:41:12;;;;;;;;;;;-4.20;99.90;;;;;;5090735;28;20317;-67
2024/01/09 03:43:39;;;;;;;;;;;-4.30;99.90;;;;;;5091352;28;19920;-66
2024/01/09 03:46:07;;;;;;;;;;;-4.40;99.90;;;;;;5090863;28;19920;-67
2024/01/09 03:48:35;;;;;;;;;;;-4.30;99.90;;;;;;5091171;28;19920;-67
2024/01/09 03:51:03;;;;;;;;;;;-4.30;99.90;;;;;;5090382;28;19924;-68
2024/01/09 03:53:30;;;;;;;;;;;-4.40;99.90;;;;;;5090293;28;20402;-68
2024/01/09 03:55:58;;;;;;;;;;;-4.50;99.90;;;;;;5091122;28;19920;-68
2024/01/09 03:58:27;;;;;;;;;;;-4.50;99.90;;;;;;5091005;28;20375;-69
2024/01/09 04:00:55;;;;;;;;;;;-4.50;99.90;;;;;;5089947;28;19927;-67
2024/01/09 04:03:23;;;;;;;;;;;-4.50;99.90;;;;;;5091116;28;20340;-67
2024/01/09 04:05:51;;;;;;;;;;;-4.50;99.90;;;;;;5091141;28;19924;-67
2024/01/09 04:08:19;;;;;;;;;;;-4.60;99.90;;;;;;5091110;28;19919;-67
2024/01/09 04:10:47;;;;;;;;;;;-4.60;99.90;;;;;;5090505;28;20006;-66
2024/01/09 04:13:14;;;;;;;;;;;-4.70;99.90;;;;;;5090992;28;19919;-67
2024/01/09 04:15:44;;;;;;;;;;;-4.70;99.90;;;;;;5090801;28;20371;-68
2024/01/09 04:18:12;;;;;;;;;;;-4.80;99.90;;;;;;5090769;28;19927;-67
2024/01/09 04:20:41;;;;;;;;;;;-4.80;99.90;;;;;;5090398;28;20199;-67
2024/01/09 04:23:09;;;;;;;;;;;-4.80;99.90;;;;;;5087701;28;19920;-67
2024/01/09 04:25:36;;;;;;;;;;;-4.70;99.90;;;;;;5086037;28;19920;-67
2024/01/09 04:28:04;;;;;;;;;;;-4.80;99.90;;;;;;5090179;28;20302;-68
2024/01/09 04:30:32;;;;;;;;;;;-4.70;99.90;;;;;;5089725;28;19924;-67
2024/01/09 04:33:02;;;;;;;;;;;-4.80;99.90;;;;;;5090766;28;19951;-68
2024/01/09 04:35:30;;;;;;;;;;;-4.80;99.90;;;;;;5090899;28;19946;-68
2024/01/09 04:37:57;;;;;;;;;;;-4.80;99.90;;;;;;5091263;28;19920;-68
2024/01/09 04:40:27;;;;;;;;;;;-4.70;99.90;;;;;;5089964;28;19927;-67
2024/01/09 04:42:55;;;;;;;;;;;-4.70;99.90;;;;;;5090337;28;19986;-67
2024/01/09 04:45:23;;;;;;;;;;;-4.70;99.90;;;;;;5090503;28;19920;-67
2024/01/09 04:47:51;;;;;;;;;;;-4.50;99.90;;;;;;5090256;28;20339;-67
2024/01/09 04:50:20;;;;;;;;;;;-4.50;99.90;;;;;;5087421;28;19920;-68
2024/01/09 04:52:48;;;;;;;;;;;-4.40;99.90;;;;;;5085741;28;19920;-68
2024/01/09 04:55:16;;;;;;;;;;;-4.30;99.90;;;;;;5086626;28;20294;-66
2024/01/09 04:57:44;;;;;;;;;;;-4.30;99.90;;;;;;5082733;28;19920;-66
2024/01/09 05:00:12;;;;;;;;;;;-4.50;99.90;;;;;;5080199;28;19928;-66
2024/01/09 05:02:40;;;;;;;;;;;-4.60;99.90;;;;;;5081748;28;19947;-67
2024/01/09 05:05:08;;;;;;;;;;;-4.70;99.90;;;;;;5083516;28;19944;-67
2024/01/09 05:07:37;;;;;;;;;;;-4.60;99.90;;;;;;5086333;28;20278;-65
2024/01/09 05:10:06;;;;;;;;;;;-4.70;99.90;;;;;;5083633;28;19981;-66
2024/01/09 05:12:33;;;;;;;;;;;-4.80;99.90;;;;;;5085598;28;19936;-66
2024/01/09 05:15:01;;;;;;;;;;;-4.80;99.90;;;;;;5085697;28;19984;-65
2024/01/09 05:17:29;;;;;;;;;;;-4.80;99.90;;;;;;5085179;28;19932;-65
2024/01/09 05:19:57;;;;;;;;;;;-4.80;99.90;;;;;;5084368;28;20005;-66
2024/01/09 05:22:27;;;;;;;;;;;-4.70;99.90;;;;;;5083613;28;19928;-67
2024/01/09 05:24:56;;;;;;;;;;;-4.30;99.90;;;;;;5082475;28;19935;-69
2024/01/09 05:27:24;;;;;;;;;;;-3.40;99.90;;;;;;5082195;28;19943;-68
2024/01/09 05:29:52;;;;;;;;;;;-3.10;99.90;;;;;;5082448;28;20181;-67
2024/01/09 05:32:20;;;;;;;;;;;-3.30;99.90;;;;;;5082309;28;19932;-67
2024/01/09 05:34:47;;;;;;;;;;;-3.50;99.90;;;;;;5082609;28;19932;-67
2024/01/09 05:37:15;;;;;;;;;;;-3.50;99.90;;;;;;5082167;28;19928;-66
2024/01/09 05:39:43;;;;;;;;;;;-2.90;99.90;;;;;;5081742;28;19924;-66
2024/01/09 05:42:12;;;;;;;;;;;-3.20;99.90;;;;;;5081811;28;19928;-65
2024/01/09 05:44:40;;;;;;;;;;;-3.60;99.90;;;;;;5083268;28;19924;-64
2024/01/09 05:47:08;;;;;;;;;;;-3.90;99.90;;;;;;5084258;28;19928;-65
2024/01/09 05:49:36;;;;;;;;;;;-4.10;99.90;;;;;;5084781;28;19928;-65
2024/01/09 05:52:04;;;;;;;;;;;-4.20;99.90;;;;;;5084123;28;19928;-66
2024/01/09 05:54:32;;;;;;;;;;;-4.30;99.90;;;;;;5084578;28;19935;-66
2024/01/09 05:57:00;;;;;;;;;;;-4.40;99.90;;;;;;5083801;28;19955;-65
2024/01/09 05:59:29;;;;;;;;;;;-4.40;99.90;;;;;;5083878;28;19928;-65
2024/01/09 06:01:57;;;;;;;;;;;-4.40;99.90;;;;;;5083549;28;19971;-65
2024/01/09 06:04:25;;;;;;;;;;;-4.30;99.90;;;;;;5083751;28;19928;-66
2024/01/09 06:06:53;;;;;;;;;;;-4.40;99.90;;;;;;5083392;28;19928;-65
2024/01/09 06:09:21;;;;;;;;;;;-4.40;99.90;;;;;;5084533;28;19931;-65
2024/01/09 06:11:48;;;;;;;;;;;-4.40;99.90;;;;;;5082776;28;19932;-66
2024/01/09 06:14:16;;;;;;;;;;;-4.30;99.90;;;;;;5083358;28;19927;-65
2024/01/09 06:16:45;;;;;;;;;;;-4.40;99.90;;;;;;5084556;28;19924;-67
2024/01/09 06:19:13;;;;;;;;;;;-4.30;99.90;;;;;;5085184;28;19927;-65
2024/01/09 06:21:41;;;;;;;;;;;-4.20;99.90;;;;;;5084316;28;19928;-65
2024/01/09 06:24:09;;;;;;;;;;;-4.20;99.90;;;;;;5084565;28;20014;-65
2024/01/09 06:26:36;;;;;;;;;;;-4.20;99.90;;;;;;5084652;28;20303;-65
2024/01/09 06:29:05;;;;;;;;;;;-4.20;99.90;;;;;;5084515;28;19924;-65
2024/01/09 06:31:33;;;;;;;;;;;-4.20;99.90;;;;;;5084766;28;20838;-65
2024/01/09 06:34:02;;;;;;;;;;;-4.10;99.90;;;;;;5082376;28;20346;-66
2024/01/09 06:36:30;;;;;;;;;;;-4.10;99.90;;;;;;5083222;28;19997;-65
2024/01/09 06:38:59;;;;;;;;;;;-4.20;99.90;;;;;;5081684;28;19928;-65
2024/01/09 06:41:27;;;;;;;;;;;-4.20;99.90;;;;;;5082040;28;20028;-65
2024/01/09 06:43:55;;;;;;;;;;;-4.10;99.90;;;;;;5082721;28;20213;-66
2024/01/09 06:46:23;;;;;;;;;;;-4.10;99.90;;;;;;5082822;28;19924;-65
2024/01/09 06:48:50;;;;;;;;;;;-4.10;99.90;;;;;;5082970;28;19924;-65
2024/01/09 06:51:20;;;;;;;;;;;-4.10;99.90;;;;;;5082164;28;19934;-64
2024/01/09 06:53:47;;;;;;;;;;;-4.00;99.90;;;;;;5082427;28;20009;-65
2024/01/09 06:56:15;;;;;;;;;;;-4.00;99.90;;;;;;5081809;28;20335;-65
2024/01/09 06:58:45;;;;;;;;;;;-3.90;99.90;;;;;;5081488;28;20289;-64
2024/01/09 07:01:13;;;;;;;;;;;-3.80;99.90;;;;;;5080318;28;19928;-65
2024/01/09 07:03:43;;;;;;;;;;;-3.80;99.90;;;;;;5070043;28;19924;-64
2024/01/09 07:06:11;;;;;;;;;;;-3.80;99.90;;;;;;5084414;28;19936;-66
2024/01/09 07:08:40;;;;;;;;;;;-3.80;99.90;;;;;;5096645;28;20460;-66
2024/01/09 07:11:08;;;;;;;;;;;-3.90;99.90;;;;;;5097430;28;19931;-65
2024/01/09 07:13:36;;;;;;;;;;;-3.90;99.90;;;;;;5100644;28;19920;-65
2024/01/09 07:16:04;;;;;;;;;;;-3.90;99.90;;;;;;5092335;28;19920;-66
2024/01/09 07:18:36;;;;;;;;;;;-4.00;99.90;;;;;;5087520;28;19955;-66
2024/01/09 07:21:04;;;;;;;;;;;-4.00;99.90;;;;;;5087076;28;19924;-67
2024/01/09 07:23:32;;;;;;;;;;;-4.10;99.90;;;;;;5090919;28;20456;-66
2024/01/09 07:26:02;;;;;;;;;;;-4.20;99.90;;;;;;5102320;28;19920;-65
2024/01/09 07:28:29;;;;;;;;;;;-4.20;99.90;;;;;;5093255;28;20386;-65
2024/01/09 07:30:59;;;;;;;;;;;-4.20;99.90;;;;;;5090625;28;20143;-65
2024/01/09 07:33:27;;;;;;;;;;;-4.30;99.90;;;;;;5090153;28;20271;-65
2024/01/09 07:35:55;;;;;;;;;;;-4.30;99.90;;;;;;5091205;28;20263;-65
2024/01/09 07:38:24;;;;;;;;;;;-4.40;99.90;;;;;;5073242;28;19927;-65
2024/01/09 07:40:53;;;;;;;;;;;-4.40;99.90;;;;;;5090865;28;19920;-65
2024/01/09 07:43:26;;;;;;;;;;;-4.40;99.90;;;;;;5091305;28;19927;-65
2024/01/09 07:45:54;;;;;;;;;;;-4.50;99.90;;;;;;5090950;28;20179;-65
2024/01/09 07:48:22;;;;;;;;;;;-4.50;99.90;;;;;;5091532;28;20333;-65
2024/01/09 07:50:50;;;;;;;;;;;-4.50;99.90;;;;;;5090901;28;20235;-65
2024/01/09 07:53:18;;;;;;;;;;;-4.30;99.90;;;;;;5090934;28;19920;-65
2024/01/09 07:55:46;;;;;;;;;;;-4.10;99.90;;;;;;5091197;28;19920;-65
2024/01/09 07:58:14;;;;;;;;;;;-3.80;99.90;;;;;;5090603;28;19974;-65
2024/01/09 08:00:43;;;;;;;;;;;-3.60;99.90;;;;;;5091094;28;19920;-65
2024/01/09 08:03:11;;;;;;;;;;;-3.50;99.90;;;;;;5091071;28;19920;-65
2024/01/09 08:05:39;;;;;;;;;;;-3.30;99.90;;;;;;5090942;28;20014;-65
2024/01/09 08:08:07;;;;;;;;;;;-3.10;99.90;;;;;;5090927;28;19928;-65
2024/01/09 08:10:35;;;;;;;;;;;-3.00;99.90;;;;;;5090691;28;19920;-65
2024/01/09 08:13:03;;;;;;;;;;;-2.80;99.90;;;;;;5090794;28;19947;-63
2024/01/09 08:15:30;;;;;;;;;;;-2.70;99.90;;;;;;5090437;28;19927;-63
2024/01/09 08:18:00;;;;;;;;;;;-2.60;99.90;;;;;;5091194;28;19924;-63
2024/01/09 08:20:28;;;;;;;;;;;-2.60;99.90;;;;;;5090253;28;20312;-63
2024/01/09 08:22:57;;;;;;;;;;;-2.50;99.90;;;;;;5090934;28;20379;-63
2024/01/09 08:25:25;;;;;;;;;;;-2.30;99.90;;;;;;5090671;28;20399;-63
2024/01/09 08:27:53;;;;;;;;;;;-2.20;99.90;;;;;;5090520;28;19920;-66
2024/01/09 08:30:21;;;;;;;;;;;-2.00;99.90;;;;;;5090159;28;19920;-66
2024/01/09 08:32:48;;;;;;;;;;;-1.90;99.90;;;;;;5090988;28;20015;-67
2024/01/09 08:35:18;;;;;;;;;;;-1.80;99.90;;;;;;5090672;28;19924;-64
2024/01/09 08:37:46;;;;;;;;;;;-1.70;99.90;;;;;;5091101;28;19978;-65
2024/01/09 08:40:14;;;;;;;;;;;-1.50;99.90;;;;;;5093378;28;19919;-63
2024/01/09 08:42:42;;;;;;;;;;;-1.20;99.90;;;;;;5094723;28;19920;-66
2024/01/09 08:45:10;;;;;;;;;;;-1.00;99.90;;;;;;5094609;28;19924;-64
2024/01/09 08:47:38;;;;;;;;;;;-0.80;99.20;;;;;;5094773;28;19973;-65
2024/01/09 08:50:07;;;;;;;;;;;-0.60;99.00;;;;;;5094363;28;19955;-65
2024/01/09 08:52:37;;;;;;;;;;;-0.40;98.20;;;;;;5086042;28;19926;-65
2024/01/09 08:55:05;;;;;;;;;;;-0.40;97.40;;;;;;5094378;28;20375;-65
2024/01/09 08:57:32;;;;;;;;;;;-0.30;97.40;;;;;;5093919;28;19920;-65
2024/01/09 09:00:03;;;;;;;;;;;-0.30;96.90;;;;;;5093636;28;20007;-65
2024/01/09 09:02:32;;;;;;;;;;;-0.10;96.70;;;;;;5094189;28;19935;-65
2024/01/09 09:04:59;;;;;;;;;;;-0.10;96.30;;;;;;5094419;28;20344;-65
2024/01/09 09:07:27;;;;;;;;;;;-0.20;96.00;;;;;;5093981;28;19924;-65
2024/01/09 09:09:57;;;;;;;;;;;-0.20;95.80;;;;;;5093976;28;19920;-65
2024/01/09 09:12:25;;;;;;;;;;;-0.10;95.80;;;;;;5094266;28;19920;-64
2024/01/09 09:14:53;;;;;;;;;;;0.00;95.30;;;;;;5085689;28;19936;-66
2024/01/09 09:17:21;;;;;;;;;;;0.20;95.20;;;;;;5093877;28;19920;-64
2024/01/09 09:19:48;;;;;;;;;;;0.20;94.60;;;;;;5094721;28;19924;-65
2024/01/09 09:22:17;;;;;;;;;;;0.30;94.20;;;;;;5093184;28;19920;-64
2024/01/09 09:24:45;;;;;;;;;;;0.30;93.10;;;;;;5089578;28;19924;-65
2024/01/09 09:27:14;;;;;;;;;;;0.40;93.20;;;;;;5090070;28;19927;-64
2024/01/09 09:29:42;;;;;;;;;;;0.50;92.70;;;;;;5094168;28;19941;-65
2024/01/09 09:32:12;;;;;;;;;;;0.50;92.60;;;;;;5093482;28;19928;-65
2024/01/09 09:34:40;;;;;;;;;;;0.60;93.40;;;;;;5094030;28;19920;-65
2024/01/09 09:37:12;;;;;;;;;;;0.60;93.20;;;;;;5093756;28;19965;-65
2024/01/09 09:39:40;;;;;;;;;;;0.60;92.50;;;;;;5085778;28;19969;-65
2024/01/09 09:42:08;;;;;;;;;;;0.60;91.40;;;;;;5093220;28;19936;-65
2024/01/09 09:44:38;;;;;;;;;;;0.40;91.50;;;;;;5093037;28;19988;-65
2024/01/09 09:47:06;;;;;;;;;;;0.60;91.80;;;;;;5093516;28;19932;-65
2024/01/09 09:49:36;;;;;;;;;;;0.60;91.20;;;;;;5093567;28;19920;-65
2024/01/09 09:52:05;;;;;;;;;;;0.60;91.00;;;;;;5073903;28;19920;-65
2024/01/09 09:54:35;;;;;;;;;;;0.70;90.80;;;;;;5092984;28;19927;-66
2024/01/09 09:57:02;;;;;;;;;;;0.90;91.00;;;;;;5092982;28;19920;-65
2024/01/09 09:59:30;;;;;;;;;;;1.30;90.60;;;;;;5093040;28;19927;-65
2024/01/09 10:02:00;;;;;;;;;;;1.10;88.40;;;;;;5092978;28;20386;-64
2024/01/09 10:04:33;;;;;;;;;;;0.90;89.00;;;;;;5093022;28;19920;-66
2024/01/09 10:07:01;;;;;;;;;;;1.00;88.30;;;;;;5093280;28;19920;-65
2024/01/09 10:09:31;;;;;;;;;;;0.90;87.50;;;;;;5092944;28;19969;-65
2024/01/09 10:11:59;;;;;;;;;;;1.00;87.60;;;;;;5092207;28;19923;-64
2024/01/09 10:14:27;;;;;;;;;;;1.10;87.50;;;;;;5092460;28;19966;-65
2024/01/09 10:16:55;;;;;;;;;;;1.20;86.10;;;;;;5093315;28;19932;-65
2024/01/09 10:19:24;;;;;;;;;;;1.00;85.40;;;;;;5092938;28;19920;-65
2024/01/09 10:21:53;;;;;;;;;;;0.90;85.00;;;;;;5092081;28;19926;-64
2024/01/09 10:24:21;;;;;;;;;;;1.00;85.60;;;;;;5092860;28;19924;-65
2024/01/09 10:26:51;;;;;;;;;;;1.00;85.20;;;;;;5093124;28;19924;-65
2024/01/09 10:29:19;;;;;;;;;;;1.10;85.10;;;;;;5092453;28;19973;-65
2024/01/09 10:31:46;;;;;;;;;;;1.30;84.10;;;;;;5091867;28;19920;-66
2024/01/09 10:34:14;;;;;;;;;;;1.20;83.50;;;;;;5092696;28;19931;-66
2024/01/09 10:36:43;;;;;;;;;;;1.30;84.20;;;;;;5092227;28;19920;-66
2024/01/09 10:39:12;;;;;;;;;;;1.20;83.60;;;;;;5092563;28;19920;-66
2024/01/09 10:41:40;;;;;;;;;;;1.10;82.80;;;;;;5092146;28;19935;-65
2024/01/09 10:44:08;;;;;;;;;;;1.00;82.70;;;;;;5092031;28;19978;-66
2024/01/09 10:46:37;;;;;;;;;;;1.00;83.40;;;;;;5092240;28;19967;-64
2024/01/09 10:49:06;;;;;;;;;;;1.20;83.20;;;;;;5092499;28;20015;-66
2024/01/09 10:51:35;;;;;;;;;;;1.40;83.10;;;;;;5091678;28;19920;-66
2024/01/09 10:54:05;;;;;;;;;;;1.40;81.90;;;;;;5092259;28;19997;-64
2024/01/09 10:56:34;;;;;;;;;;;1.20;81.20;;;;;;5092140;28;19965;-64
2024/01/09 10:59:03;;;;;;;;;;;1.30;81.90;;;;;;5092030;28;19956;-64
2024/01/09 11:01:31;;;;;;;;;;;1.30;80.80;;;;;;5090867;28;19924;-64
2024/01/09 11:03:58;;;;;;;;;;;1.50;82.60;;;;;;5091895;28;19924;-65
2024/01/09 11:06:27;;;;;;;;;;;1.50;81.40;;;;;;5073694;28;19920;-64
2024/01/09 11:08:58;;;;;;;;;;;1.60;81.10;;;;;;5091967;28;20455;-64
2024/01/09 11:11:29;;;;;;;;;;;1.70;79.00;;;;;;5091262;28;19924;-64
2024/01/09 11:14:00;;;;;;;;;;;1.70;77.20;;;;;;5091994;28;20262;-65
2024/01/09 11:16:31;;;;;;;;;;;1.70;77.60;;;;;;5091230;28;19971;-65
2024/01/09 11:19:01;;;;;;;;;;;1.80;76.50;;;;;;5091678;28;19923;-65
2024/01/09 11:21:29;;;;;;;;;;;2.00;76.80;;;;;;5090440;28;20009;-65
2024/01/09 11:24:00;;;;;;;;;;;2.20;75.20;;;;;;5091767;28;19920;-64
2024/01/09 11:26:35;;;;;;;;;;;2.30;74.60;;;;;;5091577;28;19939;-66
2024/01/09 11:29:04;;;;;;;;;;;2.20;74.20;;;;;;5091611;28;19920;-65
2024/01/09 11:31:35;;;;;;;;;;;2.30;74.00;;;;;;5090428;28;19927;-64
2024/01/09 11:34:03;;;;;;;;;;;2.30;72.50;;;;;;5091605;28;19920;-65
2024/01/09 11:36:33;;;;;;;;;;;2.20;72.20;;;;;;5091269;28;19978;-65
2024/01/09 11:39:01;;;;;;;;;;;2.30;72.50;;;;;;5091357;28;19919;-66
2024/01/09 11:41:34;;;;;;;;;;;2.50;72.80;;;;;;5090558;28;19923;-64
2024/01/09 11:44:03;;;;;;;;;;;2.50;71.40;;;;;;5091301;28;19920;-64
2024/01/09 11:46:32;;;;;;;;;;;2.60;70.90;;;;;;5091032;28;20322;-66
2024/01/09 11:49:00;;;;;;;;;;;2.60;71.30;;;;;;5091461;28;20019;-64
2024/01/09 11:51:30;;;;;;;;;;;2.60;70.10;;;;;;5090458;28;19927;-65
2024/01/09 11:53:59;;;;;;;;;;;2.70;70.30;;;;;;5090624;28;19924;-65
2024/01/09 11:56:27;;;;;;;;;;;2.90;70.80;;;;;;5091331;28;19920;-64
2024/01/09 11:58:57;;;;;;;;;;;2.90;69.00;;;;;;5091083;28;19920;-64
2024/01/09 12:01:26;;;;;;;;;;;2.70;68.50;;;;;;5090206;28;19926;-64
2024/01/09 12:03:55;;;;;;;;;;;2.70;69.20;;;;;;5082890;28;20050;-64
2024/01/09 12:06:23;;;;;;;;;;;2.50;68.10;;;;;;5091311;28;19923;-65
2024/01/09 12:08:51;;;;;;;;;;;2.70;69.10;;;;;;5090947;28;19955;-65
2024/01/09 12:11:19;;;;;;;;;;;2.70;68.80;;;;;;5090630;28;19920;-64
2024/01/09 12:13:48;;;;;;;;;;;2.80;68.60;;;;;;5089762;28;19928;-64
2024/01/09 12:16:19;;;;;;;;;;;2.90;68.10;;;;;;5090883;28;19977;-65
2024/01/09 12:18:48;;;;;;;;;;;2.90;67.70;;;;;;5090752;28;19920;-65
2024/01/09 12:21:16;;;;;;;;;;;2.80;68.30;;;;;;5090294;28;19923;-65
2024/01/09 12:23:44;;;;;;;;;;;2.90;67.20;;;;;;5090468;28;19974;-65
2024/01/09 12:26:32;;;;;;;;;;;2.90;67.70;;;;;;5090833;28;19973;-65
2024/01/09 12:29:00;;;;;;;;;;;2.50;67.40;;;;;;5090367;28;20375;-65
2024/01/09 12:31:29;;;;;;;;;;;2.10;68.30;;;;;;5090400;28;19920;-65
2024/01/09 12:33:57;;;;;;;;;;;1.90;68.90;;;;;;5090856;28;20370;-65
2024/01/09 12:36:27;;;;;;;;;;;1.80;68.50;;;;;;5090778;28;20448;-65
2024/01/09 12:38:56;;;;;;;;;;;1.60;68.50;;;;;;5082537;28;19926;-65
2024/01/09 12:41:24;;;;;;;;;;;1.60;69.70;;;;;;5090266;28;20458;-65
2024/01/09 12:43:52;;;;;;;;;;;1.60;69.80;;;;;;5089656;28;19924;-65
2024/01/09 12:46:21;;;;;;;;;;;1.50;69.60;;;;;;5090950;28;20401;-65
2024/01/09 12:48:51;;;;;;;;;;;1.40;68.80;;;;;;5090499;28;20014;-65
2024/01/09 12:51:19;;;;;;;;;;;1.40;69.00;;;;;;5090062;28;19920;-65
2024/01/09 12:53:47;;;;;;;;;;;1.30;69.10;;;;;;5090274;28;19924;-65
2024/01/09 12:56:15;;;;;;;;;;;1.30;69.50;;;;;;5090710;28;19920;-64
2024/01/09 12:58:45;;;;;;;;;;;1.30;70.00;;;;;;5090119;28;19956;-65
2024/01/09 13:01:13;;;;;;;;;;;1.30;69.70;;;;;;5089960;28;19969;-65
2024/01/09 13:03:41;;;;;;;;;;;1.40;70.00;;;;;;5090074;28;19920;-65
2024/01/09 13:06:12;;;;;;;;;;;1.40;70.10;;;;;;5087526;28;20007;-65
2024/01/09 13:08:40;;;;;;;;;;;1.40;70.10;;;;;;5090399;28;19969;-65
2024/01/09 13:11:09;;;;;;;;;;;1.30;70.90;;;;;;5089859;28;19963;-65
2024/01/09 13:13:38;;;;;;;;;;;1.40;70.70;;;;;;5089979;28;19998;-64
2024/01/09 13:16:07;;;;;;;;;;;1.30;69.90;;;;;;5090064;28;19927;-65
2024/01/09 13:18:34;;;;;;;;;;;1.30;70.60;;;;;;5090290;28;19924;-64
2024/01/09 13:21:03;;;;;;;;;;;1.30;72.00;;;;;;5089780;28;20027;-65
2024/01/09 13:23:33;;;;;;;;;;;1.40;70.60;;;;;;5089962;28;19920;-65
2024/01/09 13:26:04;;;;;;;;;;;1.30;70.70;;;;;;5091223;28;19927;-65
2024/01/09 13:28:32;;;;;;;;;;;1.20;71.40;;;;;;5093969;28;19924;-64
2024/01/09 13:31:00;;;;;;;;;;;1.30;71.00;;;;;;5093506;28;19920;-65
2024/01/09 13:33:32;;;;;;;;;;;1.20;71.10;;;;;;5094270;28;19949;-65
2024/01/09 13:36:02;;;;;;;;;;;1.30;71.10;;;;;;5085454;28;19931;-65
2024/01/09 13:38:30;;;;;;;;;;;1.20;71.30;;;;;;5093755;28;19919;-63
2024/01/09 13:40:59;;;;;;;;;;;1.20;72.40;;;;;;5092772;28;20386;-65
2024/01/09 13:43:27;;;;;;;;;;;1.30;72.50;;;;;;5093468;28;20386;-65
2024/01/09 13:45:56;;;;;;;;;;;1.30;72.50;;;;;;5093478;28;19927;-66
2024/01/09 13:48:24;;;;;;;;;;;1.30;72.30;;;;;;5093630;28;19965;-65
2024/01/09 13:50:51;;;;;;;;;;;1.30;72.60;;;;;;5092899;28;20399;-65
2024/01/09 13:53:22;;;;;;;;;;;1.30;72.60;;;;;;5092793;28;19920;-64
2024/01/09 13:55:57;;;;;;;;;;;1.30;73.20;;;;;;5093358;28;20279;-65
2024/01/09 13:58:26;;;;;;;;;;;1.30;73.30;;;;;;5093298;28;19920;-65
2024/01/09 14:00:54;;;;;;;;;;;1.20;73.70;;;;;;5092594;28;19919;-65
2024/01/09 14:03:24;;;;;;;;;;;1.20;73.50;;;;;;5093093;28;19920;-64
2024/01/09 14:05:52;;;;;;;;;;;1.20;73.70;;;;;;5093086;28;19920;-65
2024/01/09 14:08:20;;;;;;;;;;;1.20;74.50;;;;;;5093010;28;20444;-66
2024/01/09 14:10:48;;;;;;;;;;;1.20;74.00;;;;;;5092519;28;19920;-65
2024/01/09 14:13:18;;;;;;;;;;;1.20;74.10;;;;;;5092727;28;19927;-66
2024/01/09 14:15:48;;;;;;;;;;;1.20;73.70;;;;;;5092922;28;19928;-65
2024/01/09 14:18:16;;;;;;;;;;;1.20;73.60;;;;;;5093005;28;19920;-65
2024/01/09 14:20:44;;;;;;;;;;;1.10;74.70;;;;;;5092107;28;19930;-66
2024/01/09 14:23:12;;;;;;;;;;;1.10;74.70;;;;;;5092184;28;19993;-65
2024/01/09 14:25:40;;;;;;;;;;;1.10;75.00;;;;;;5092664;28;19920;-65
2024/01/09 14:28:09;;;;;;;;;;;1.10;75.10;;;;;;5084920;28;19932;-64